Aviation Digital Data Service (ADDS)

Output produced by METARs form (0159 UTC 25 September 2016)
found at http://aviationweather.gov/adds/metars/
 
KROA 242348Z 2500/2524 32005KT P6SM BKN090 
     TEMPO 2500/2504 VRB04KT 
     FM250400 07007KT P6SM OVC025 
     FM250800 08008KT 6SM BR OVC015 
     TEMPO 2509/2513 5SM -DZ BR 
     FM251800 10007KT P6SM BKN035